Time;durP1;ratioP1;P1;durP2;ratioP2;P2;SDS_P1;SDS_P2;PMS_P1;PMS_P2;Temp;Humidity;BMP_temperature;BMP_pressure;BME280_temperature;BME280_humidity;BME280_pressure;Samples;Min_cycle;Max_cycle;Signal;HPM_P1;HPM_P2
2022/03/25 00:00:14;;;;;;;34.93;25.20;;;9.50;57.50;;;;;;6188114;23;20397;-88
2022/03/25 00:02:41;;;;;;;30.70;24.77;;;9.40;57.60;;;;;;6197429;23;20472;-88
2022/03/25 00:05:08;;;;;;;36.67;25.47;;;9.30;58.00;;;;;;6214374;23;20391;-88
2022/03/25 00:07:35;;;;;;;36.13;24.80;;;9.30;58.20;;;;;;6207663;23;20445;-89
2022/03/25 00:10:03;;;;;;;34.20;26.40;;;9.30;58.60;;;;;;6201010;23;20397;-88
2022/03/25 00:12:29;;;;;;;35.60;26.30;;;9.20;58.60;;;;;;6211338;23;20452;-89
2022/03/25 00:14:56;;;;;;;33.53;26.90;;;9.20;58.90;;;;;;6211231;23;20389;-89
2022/03/25 00:17:24;;;;;;;37.50;26.77;;;9.10;59.00;;;;;;6204439;23;20402;-89
2022/03/25 00:19:51;;;;;;;34.67;24.57;;;9.10;59.10;;;;;;6191448;23;20409;-89
2022/03/25 00:22:18;;;;;;;32.70;24.17;;;9.10;59.30;;;;;;6212302;23;20386;-89
2022/03/25 00:24:45;;;;;;;36.30;28.10;;;9.10;59.50;;;;;;6201664;23;20402;-89
2022/03/25 00:27:12;;;;;;;30.50;23.90;;;9.10;59.60;;;;;;6191556;23;20433;-89
2022/03/25 00:29:39;;;;;;;36.37;24.67;;;9.00;59.90;;;;;;6187997;23;20418;-89
2022/03/25 00:32:06;;;;;;;35.67;25.47;;;9.00;60.60;;;;;;6187694;23;20405;-89
2022/03/25 00:34:34;;;;;;;34.73;24.70;;;8.90;60.50;;;;;;6186553;23;20422;-89
2022/03/25 00:37:01;;;;;;;32.53;24.90;;;8.80;60.90;;;;;;6186248;23;20402;-89
2022/03/25 00:39:28;;;;;;;35.60;25.20;;;8.80;61.30;;;;;;6186398;23;20406;-89
2022/03/25 00:41:55;;;;;;;33.60;25.53;;;8.80;61.60;;;;;;6186652;23;20425;-89
2022/03/25 00:44:21;;;;;;;39.70;23.63;;;8.70;61.90;;;;;;6186540;23;20477;-89
2022/03/25 00:46:48;;;;;;;39.30;26.73;;;8.70;62.00;;;;;;6186313;23;20446;-89
2022/03/25 00:49:14;;;;;;;38.60;24.23;;;8.60;62.10;;;;;;6186695;23;20437;-89
2022/03/25 00:51:42;;;;;;;31.83;25.90;;;8.50;62.10;;;;;;6187016;23;20410;-89
2022/03/25 00:54:10;;;;;;;35.57;24.70;;;8.40;62.40;;;;;;6185841;23;20484;-89
2022/03/25 00:56:36;;;;;;;35.87;26.33;;;8.40;62.90;;;;;;6186083;23;20402;-88
2022/03/25 00:59:03;;;;;;;34.93;24.83;;;8.50;62.10;;;;;;6185919;23;20711;-89
2022/03/25 01:01:30;;;;;;;35.33;25.00;;;8.60;62.00;;;;;;6186185;23;20402;-89
2022/03/25 01:03:57;;;;;;;31.70;25.07;;;8.60;61.70;;;;;;6185721;23;20448;-88
2022/03/25 01:06:24;;;;;;;31.27;24.70;;;8.60;61.70;;;;;;6186006;23;20442;-88
2022/03/25 01:08:52;;;;;;;30.53;25.33;;;8.50;61.50;;;;;;6186242;23;20501;-89
2022/03/25 01:11:19;;;;;;;34.27;25.17;;;8.50;61.80;;;;;;6185910;23;20933;-88
2022/03/25 01:13:45;;;;;;;36.23;25.00;;;8.50;61.90;;;;;;6187375;23;20425;-88
2022/03/25 01:16:12;;;;;;;36.83;25.10;;;8.50;61.80;;;;;;6190949;23;20460;-88
2022/03/25 01:18:39;;;;;;;32.70;23.77;;;8.50;62.00;;;;;;6213990;23;20417;-88
2022/03/25 01:21:06;;;;;;;29.53;25.43;;;8.50;62.10;;;;;;6213722;23;20482;-89
2022/03/25 01:23:33;;;;;;;32.83;25.43;;;8.40;62.50;;;;;;6188601;23;20476;-88
2022/03/25 01:26:01;;;;;;;37.83;26.10;;;8.30;63.10;;;;;;6187203;23;20406;-88
2022/03/25 01:28:32;;;;;;;32.07;25.10;;;8.30;63.30;;;;;;6187430;23;20781;-88
2022/03/25 01:31:00;;;;;;;37.40;27.97;;;8.20;63.40;;;;;;6188115;23;20500;-89
2022/03/25 01:33:28;;;;;;;34.23;25.53;;;8.10;64.30;;;;;;6186349;23;20426;-89
2022/03/25 01:35:55;;;;;;;33.10;22.97;;;8.00;64.90;;;;;;6186051;23;20496;-88
2022/03/25 01:38:22;;;;;;;36.37;26.33;;;8.00;65.40;;;;;;6185970;23;20406;-89
2022/03/25 01:40:49;;;;;;;34.67;25.50;;;8.00;65.50;;;;;;6187069;23;20418;-88
2022/03/25 01:43:17;;;;;;;31.33;26.10;;;8.00;65.40;;;;;;6187793;23;20788;-88
2022/03/25 01:45:44;;;;;;;31.13;24.60;;;8.00;65.60;;;;;;6206699;23;20416;-89
2022/03/25 01:48:13;;;;;;;27.97;24.20;;;7.90;65.70;;;;;;6212895;23;20438;-88
2022/03/25 01:50:41;;;;;;;28.90;25.30;;;7.90;65.70;;;;;;6197067;23;20891;-88
2022/03/25 01:53:11;;;;;;;35.17;24.50;;;7.80;65.80;;;;;;6203946;23;20429;-88
2022/03/25 01:55:39;;;;;;;29.77;23.07;;;7.70;66.10;;;;;;6212341;23;20382;-88
2022/03/25 01:58:07;;;;;;;33.37;25.57;;;7.60;66.80;;;;;;6203766;23;20418;-88
2022/03/25 02:00:35;;;;;;;36.03;24.80;;;7.60;67.10;;;;;;6194453;23;20409;-88
2022/03/25 02:03:02;;;;;;;37.23;22.63;;;7.50;67.30;;;;;;6192103;23;20453;-83
2022/03/25 02:05:29;;;;;;;29.03;25.13;;;7.60;67.30;;;;;;6196473;23;20390;-83
2022/03/25 02:07:56;;;;;;;33.70;24.60;;;7.50;67.00;;;;;;6195562;23;20446;-83
2022/03/25 02:10:23;;;;;;;34.43;24.63;;;7.60;67.40;;;;;;6196004;23;20414;-83
2022/03/25 02:12:50;;;;;;;28.40;22.27;;;7.60;67.20;;;;;;6193882;23;20410;-84
2022/03/25 02:15:17;;;;;;;35.00;25.30;;;7.60;67.20;;;;;;6194873;23;20464;-83
2022/03/25 02:17:45;;;;;;;39.17;23.97;;;7.60;67.10;;;;;;6204905;23;20378;-83
2022/03/25 02:20:12;;;;;;;29.67;23.17;;;7.60;67.00;;;;;;6206454;23;20401;-84
2022/03/25 02:22:41;;;;;;;30.60;22.87;;;7.50;66.80;;;;;;6203757;23;20418;-83
2022/03/25 02:25:10;;;;;;;28.93;22.93;;;7.50;66.70;;;;;;6196577;23;20403;-84
2022/03/25 02:27:38;;;;;;;30.83;21.17;;;7.50;66.80;;;;;;6197343;23;20452;-82
2022/03/25 02:30:07;;;;;;;42.90;23.37;;;7.50;67.30;;;;;;6206519;23;20402;-83
2022/03/25 02:32:34;;;;;;;30.13;22.73;;;7.40;67.50;;;;;;6205981;23;20457;-84
2022/03/25 02:35:01;;;;;;;28.10;23.17;;;7.40;67.80;;;;;;6207351;23;20428;-83
2022/03/25 02:37:28;;;;;;;32.37;23.60;;;7.40;67.90;;;;;;6207232;23;20402;-83
2022/03/25 02:39:56;;;;;;;34.77;23.60;;;7.30;68.00;;;;;;6196727;23;20406;-83
2022/03/25 02:42:23;;;;;;;35.20;24.47;;;7.20;68.60;;;;;;6205398;23;20450;-81
2022/03/25 02:44:50;;;;;;;27.43;22.20;;;7.20;68.90;;;;;;6208745;23;20449;-83
2022/03/25 02:47:17;;;;;;;29.30;24.10;;;7.20;68.50;;;;;;6192348;23;20505;-83
2022/03/25 02:49:44;;;;;;;29.77;23.40;;;7.20;68.40;;;;;;6205979;23;20465;-82
2022/03/25 02:52:11;;;;;;;30.70;25.53;;;7.30;68.40;;;;;;6210226;23;20504;-84
2022/03/25 02:54:38;;;;;;;31.20;22.43;;;7.20;68.30;;;;;;6189922;23;20433;-82
2022/03/25 02:57:06;;;;;;;26.00;22.20;;;7.20;68.70;;;;;;6191462;23;20404;-83
2022/03/25 02:59:33;;;;;;;34.63;23.47;;;7.10;69.00;;;;;;6192364;23;20469;-83
2022/03/25 03:02:00;;;;;;;31.00;23.13;;;7.00;69.40;;;;;;6192850;23;20420;-82
2022/03/25 03:04:27;;;;;;;23.90;21.20;;;7.00;69.50;;;;;;6193066;23;20438;-83
2022/03/25 03:06:54;;;;;;;32.00;23.47;;;7.00;69.60;;;;;;6204062;23;20440;-82
2022/03/25 03:09:20;;;;;;;31.93;24.87;;;6.90;69.80;;;;;;6198687;23;20457;-82
2022/03/25 03:11:47;;;;;;;27.27;22.27;;;6.90;70.40;;;;;;6195182;23;20409;-84
2022/03/25 03:14:16;;;;;;;26.60;22.30;;;6.90;70.40;;;;;;6194152;23;20425;-84
2022/03/25 03:16:42;;;;;;;29.90;22.80;;;6.80;70.40;;;;;;6194920;23;20412;-83
2022/03/25 03:19:09;;;;;;;28.30;21.80;;;6.80;70.80;;;;;;6193344;23;20420;-84
2022/03/25 03:21:36;;;;;;;31.53;21.73;;;6.80;71.00;;;;;;6192638;23;20416;-83
2022/03/25 03:24:04;;;;;;;30.37;23.57;;;6.80;71.20;;;;;;6196117;23;20495;-84
2022/03/25 03:26:31;;;;;;;28.13;22.63;;;6.70;70.90;;;;;;6197446;23;20790;-85
2022/03/25 03:28:57;;;;;;;30.43;22.47;;;6.70;71.00;;;;;;6196271;23;20449;-84
2022/03/25 03:31:25;;;;;;;29.47;22.50;;;6.70;71.00;;;;;;6206884;23;20405;-83
2022/03/25 03:33:52;;;;;;;29.03;22.73;;;6.70;70.80;;;;;;6212324;23;20417;-82
2022/03/25 03:36:19;;;;;;;26.03;22.07;;;6.70;71.10;;;;;;6212496;23;20397;-82
2022/03/25 03:38:46;;;;;;;26.90;22.50;;;6.60;71.80;;;;;;6212649;23;20467;-82
2022/03/25 03:41:12;;;;;;;26.27;22.97;;;6.60;72.60;;;;;;6212319;23;20395;-82
2022/03/25 03:43:39;;;;;;;25.23;22.00;;;6.50;72.60;;;;;;6210256;23;20460;-84
2022/03/25 03:46:06;;;;;;;28.63;22.40;;;6.50;73.10;;;;;;6209753;23;20408;-83
2022/03/25 03:48:34;;;;;;;36.60;24.57;;;6.40;73.40;;;;;;6211164;23;20429;-83
2022/03/25 03:51:00;;;;;;;26.83;21.00;;;6.40;73.20;;;;;;6198397;23;20415;-83
2022/03/25 03:53:27;;;;;;;30.53;22.07;;;6.50;72.40;;;;;;6164525;23;21460;-84
2022/03/25 03:55:54;;;;;;;32.50;23.27;;;6.50;72.50;;;;;;6197589;23;20399;-83
2022/03/25 03:58:22;;;;;;;29.80;23.30;;;6.50;72.40;;;;;;6199392;23;20404;-85
2022/03/25 04:00:49;;;;;;;29.73;21.40;;;6.50;72.70;;;;;;6197302;23;20448;-85
2022/03/25 04:03:16;;;;;;;28.07;21.93;;;6.50;73.20;;;;;;6196613;23;20406;-84
2022/03/25 04:05:44;;;;;;;28.30;22.27;;;6.40;73.20;;;;;;6197009;23;20405;-84
2022/03/25 04:08:11;;;;;;;28.10;22.03;;;6.50;72.90;;;;;;6197238;23;20515;-82
2022/03/25 04:10:38;;;;;;;25.20;20.80;;;6.40;72.80;;;;;;6212241;23;20400;-81
2022/03/25 04:13:05;;;;;;;30.77;21.90;;;6.40;72.80;;;;;;6213301;23;20406;-83
2022/03/25 04:15:32;;;;;;;27.00;21.30;;;6.40;72.40;;;;;;6213068;23;20398;-81
2022/03/25 04:17:59;;;;;;;32.37;24.53;;;6.40;72.50;;;;;;6213544;23;20408;-82
2022/03/25 04:20:26;;;;;;;31.17;21.97;;;6.30;72.80;;;;;;6206142;23;20413;-83
2022/03/25 04:22:54;;;;;;;29.17;23.93;;;6.30;73.00;;;;;;6197464;23;20459;-83
2022/03/25 04:25:21;;;;;;;28.93;22.73;;;6.20;73.70;;;;;;6198723;23;20460;-83
2022/03/25 04:27:49;;;;;;;29.47;22.83;;;6.10;74.30;;;;;;6197773;23;20440;-82
2022/03/25 04:30:19;;;;;;;31.37;24.00;;;6.10;74.80;;;;;;6196902;23;20418;-82
2022/03/25 04:32:45;;;;;;;31.87;21.63;;;6.10;75.20;;;;;;6197647;23;20428;-81
2022/03/25 04:35:12;;;;;;;24.57;20.50;;;6.10;75.20;;;;;;6200825;23;20412;-82
2022/03/25 04:37:39;;;;;;;31.90;23.10;;;6.10;75.40;;;;;;6213269;23;20381;-81
2022/03/25 04:40:09;;;;;;;26.57;22.80;;;6.00;75.00;;;;;;6198252;23;20400;-83
2022/03/25 04:42:36;;;;;;;28.90;23.20;;;6.00;75.50;;;;;;6214693;23;20398;-81
2022/03/25 04:45:02;;;;;;;34.87;24.20;;;6.00;75.50;;;;;;6205063;23;20416;-82
2022/03/25 04:47:29;;;;;;;28.30;21.30;;;6.00;75.70;;;;;;6194546;23;20442;-83
2022/03/25 04:49:56;;;;;;;28.93;22.90;;;6.00;75.60;;;;;;6198592;23;20421;-83
2022/03/25 04:52:23;;;;;;;36.73;25.27;;;5.90;75.80;;;;;;6197508;23;20400;-83
2022/03/25 04:54:49;;;;;;;36.70;24.07;;;5.90;76.00;;;;;;6208006;23;20420;-83
2022/03/25 04:57:18;;;;;;;33.80;24.50;;;5.90;75.70;;;;;;6198913;23;20409;-82
2022/03/25 04:59:44;;;;;;;31.93;23.67;;;5.80;75.60;;;;;;6209372;23;20413;-83
2022/03/25 05:02:11;;;;;;;29.67;23.07;;;5.80;75.40;;;;;;6204746;23;20408;-82
2022/03/25 05:04:38;;;;;;;32.60;22.90;;;5.90;76.10;;;;;;6203349;23;20435;-84
2022/03/25 05:07:05;;;;;;;27.90;22.80;;;5.90;74.90;;;;;;6206279;23;20410;-83
2022/03/25 05:09:33;;;;;;;30.87;24.70;;;5.90;74.60;;;;;;6205574;23;20432;-83
2022/03/25 05:12:00;;;;;;;29.97;22.87;;;5.80;74.70;;;;;;6201584;23;20883;-83
2022/03/25 05:14:28;;;;;;;30.60;23.27;;;5.70;75.60;;;;;;6199728;23;20442;-84
2022/03/25 05:16:55;;;;;;;37.73;22.50;;;5.70;76.20;;;;;;6199549;23;20408;-83
2022/03/25 05:19:21;;;;;;;37.47;22.67;;;5.60;76.50;;;;;;6199505;23;20410;-84
2022/03/25 05:21:48;;;;;;;31.23;24.30;;;5.60;76.70;;;;;;6198642;23;20396;-84
2022/03/25 05:24:15;;;;;;;32.07;21.90;;;5.60;77.20;;;;;;6198145;23;20424;-84
2022/03/25 05:26:42;;;;;;;36.53;22.57;;;5.60;77.40;;;;;;6198870;23;20405;-84
2022/03/25 05:29:09;;;;;;;27.23;20.67;;;5.60;77.20;;;;;;6200212;23;20441;-83
2022/03/25 05:31:37;;;;;;;31.10;22.90;;;5.70;77.40;;;;;;6200375;23;20412;-84
2022/03/25 05:34:04;;;;;;;36.73;22.00;;;5.70;77.10;;;;;;6207122;23;20418;-83
2022/03/25 05:36:31;;;;;;;34.07;22.47;;;5.70;76.80;;;;;;6209607;23;20408;-83
2022/03/25 05:38:58;;;;;;;32.13;24.43;;;5.70;76.80;;;;;;6208964;23;20412;-83
2022/03/25 05:41:25;;;;;;;32.00;22.65;;;5.70;76.40;;;;;;6208162;23;20452;-83
2022/03/25 05:43:52;;;;;;;25.93;20.63;;;5.70;76.10;;;;;;6203108;23;20196;-84
2022/03/25 05:46:19;;;;;;;29.13;23.83;;;5.80;76.00;;;;;;6208803;23;20422;-83
2022/03/25 05:48:47;;;;;;;33.10;22.90;;;5.70;75.90;;;;;;6213162;23;20502;-82
2022/03/25 05:51:14;;;;;;;31.30;22.90;;;5.70;75.90;;;;;;6213161;23;20414;-82
2022/03/25 05:53:41;;;;;;;31.47;22.40;;;5.70;75.90;;;;;;6213071;23;20429;-83
2022/03/25 05:56:09;;;;;;;33.00;25.00;;;5.70;75.90;;;;;;6213046;23;20495;-83
2022/03/25 05:58:36;;;;;;;36.00;24.70;;;5.70;75.70;;;;;;6213466;23;20403;-82
2022/03/25 06:01:03;;;;;;;33.50;22.60;;;5.80;76.30;;;;;;6205080;23;20422;-84
2022/03/25 06:03:31;;;;;;;32.03;22.17;;;5.80;76.50;;;;;;6199070;23;20427;-84
2022/03/25 06:05:59;;;;;;;35.07;24.13;;;5.80;76.40;;;;;;6197990;23;20194;-83
2022/03/25 06:08:26;;;;;;;32.07;22.17;;;5.90;75.90;;;;;;6201103;23;20958;-85
2022/03/25 06:10:53;;;;;;;32.73;22.50;;;5.90;75.90;;;;;;6198036;23;20414;-84
2022/03/25 06:13:20;;;;;;;31.47;23.00;;;5.90;75.90;;;;;;6204617;23;20424;-84
2022/03/25 06:15:46;;;;;;;32.70;24.37;;;6.00;76.40;;;;;;6207308;23;20400;-85
2022/03/25 06:18:14;;;;;;;31.93;24.37;;;6.00;76.20;;;;;;6196569;23;20403;-84
2022/03/25 06:20:41;;;;;;;37.53;24.90;;;6.00;75.80;;;;;;6195827;23;20395;-84
2022/03/25 06:23:09;;;;;;;35.33;24.20;;;6.10;75.70;;;;;;6190183;23;20408;-84
2022/03/25 06:25:39;;;;;;;31.80;23.23;;;6.20;75.70;;;;;;6191012;23;20397;-84
2022/03/25 06:28:07;;;;;;;28.13;22.13;;;6.20;74.90;;;;;;6211396;23;20728;-81
2022/03/25 06:30:35;;;;;;;30.50;22.07;;;6.30;75.00;;;;;;6208397;23;20412;-83
2022/03/25 06:33:03;;;;;;;31.20;23.73;;;6.30;74.80;;;;;;6209176;23;20435;-82
2022/03/25 06:35:30;;;;;;;34.83;23.37;;;6.40;74.70;;;;;;6211751;23;20445;-83
2022/03/25 06:37:57;;;;;;;32.03;22.70;;;6.50;74.10;;;;;;6210548;23;20415;-82
2022/03/25 06:40:26;;;;;;;29.07;22.20;;;6.60;73.40;;;;;;6203480;23;20425;-82
2022/03/25 06:42:54;;;;;;;34.30;25.50;;;6.60;72.90;;;;;;6195613;23;20460;-82
2022/03/25 06:45:21;;;;;;;37.43;25.33;;;6.70;72.20;;;;;;6195376;23;20898;-83
2022/03/25 06:47:49;;;;;;;32.60;26.67;;;6.70;72.20;;;;;;6194796;23;20448;-84
2022/03/25 06:50:18;;;;;;;35.13;24.43;;;6.70;72.20;;;;;;6191536;23;20479;-83
2022/03/25 06:52:45;;;;;;;34.97;24.67;;;6.80;72.30;;;;;;6189063;23;20414;-85
2022/03/25 06:55:13;;;;;;;32.03;24.23;;;6.90;72.50;;;;;;6188700;23;20446;-84
2022/03/25 06:57:42;;;;;;;34.90;23.70;;;6.90;72.40;;;;;;6198175;23;20415;-83
2022/03/25 07:00:12;;;;;;;40.13;24.13;;;7.00;72.30;;;;;;6193089;23;20412;-82
2022/03/25 07:02:39;;;;;;;32.27;24.67;;;7.20;72.00;;;;;;6195957;23;20516;-83
2022/03/25 07:05:07;;;;;;;36.27;24.27;;;7.30;70.90;;;;;;6198620;23;20394;-84
2022/03/25 07:07:37;;;;;;;43.33;25.13;;;7.40;70.50;;;;;;6191726;23;20406;-84
2022/03/25 07:10:04;;;;;;;32.70;25.27;;;7.50;70.30;;;;;;6187858;23;20441;-84
2022/03/25 07:12:32;;;;;;;33.80;25.27;;;7.60;69.90;;;;;;6193658;23;20911;-83
2022/03/25 07:15:00;;;;;;;33.60;24.70;;;7.70;69.70;;;;;;6195678;23;20642;-84
2022/03/25 07:17:26;;;;;;;33.60;24.90;;;7.80;68.60;;;;;;6193802;23;20406;-84
2022/03/25 07:19:53;;;;;;;38.10;25.00;;;7.70;67.80;;;;;;6195028;23;20422;-83
2022/03/25 07:22:20;;;;;;;33.43;25.47;;;7.70;68.00;;;;;;6199172;23;20410;-84
2022/03/25 07:24:46;;;;;;;34.00;25.03;;;7.80;68.40;;;;;;6205139;23;20447;-83
2022/03/25 07:27:13;;;;;;;33.70;26.43;;;8.00;68.20;;;;;;6204352;23;20417;-83
2022/03/25 07:29:40;;;;;;;37.23;26.87;;;8.10;67.50;;;;;;6199128;23;20440;-83
2022/03/25 07:32:08;;;;;;;39.00;26.30;;;8.20;67.00;;;;;;6196329;23;20405;-83
2022/03/25 07:34:36;;;;;;;33.37;25.10;;;8.60;67.30;;;;;;6201199;23;20429;-82
2022/03/25 07:37:03;;;;;;;33.87;26.30;;;9.50;65.20;;;;;;6199584;23;20417;-83
2022/03/25 07:39:30;;;;;;;34.23;25.67;;;10.70;60.60;;;;;;6196464;23;20398;-82
2022/03/25 07:41:57;;;;;;;33.57;27.23;;;11.30;57.50;;;;;;6205612;23;20420;-84
2022/03/25 07:44:24;;;;;;;31.63;28.27;;;11.20;56.70;;;;;;6190986;23;20472;-84
2022/03/25 07:46:51;;;;;;;34.60;26.67;;;11.60;56.50;;;;;;6193743;23;20409;-84
2022/03/25 07:49:19;;;;;;;32.97;26.90;;;12.00;54.90;;;;;;6198149;23;20484;-84
2022/03/25 07:51:46;;;;;;;32.00;26.23;;;12.40;54.20;;;;;;6196114;23;21012;-83
2022/03/25 07:54:12;;;;;;;31.83;27.07;;;12.80;53.10;;;;;;6194984;23;20435;-83
2022/03/25 07:56:39;;;;;;;35.20;28.13;;;13.20;52.50;;;;;;6200331;23;20471;-83
2022/03/25 07:59:06;;;;;;;37.70;28.43;;;13.60;51.30;;;;;;6200639;23;20401;-83
2022/03/25 08:01:33;;;;;;;33.80;26.83;;;14.30;50.50;;;;;;6193970;23;20915;-84
2022/03/25 08:04:00;;;;;;;32.87;27.30;;;14.10;48.80;;;;;;6196208;23;20436;-84
2022/03/25 08:06:28;;;;;;;32.63;25.53;;;14.00;49.10;;;;;;6192169;23;20453;-84
2022/03/25 08:08:55;;;;;;;32.57;28.40;;;14.00;49.30;;;;;;6190019;23;20441;-83
2022/03/25 08:11:21;;;;;;;41.53;28.67;;;14.30;48.90;;;;;;6192730;23;20413;-82
2022/03/25 08:13:48;;;;;;;32.43;27.40;;;14.30;48.30;;;;;;6192233;23;20941;-77
2022/03/25 08:16:16;;;;;;;30.50;26.03;;;13.90;48.90;;;;;;6196152;23;20488;-78
2022/03/25 08:18:43;;;;;;;33.60;27.17;;;13.80;49.30;;;;;;6203867;23;20564;-77
2022/03/25 08:21:10;;;;;;;37.20;27.57;;;13.30;49.50;;;;;;6210126;23;20408;-77
2022/03/25 08:29:08;;;;;;;30.60;27.00;;;14.40;50.10;;;;;;6188481;23;20435;-78
2022/03/25 08:31:35;;;;;;;33.87;27.80;;;15.20;47.40;;;;;;6186913;23;20507;-79
2022/03/25 08:34:02;;;;;;;30.43;26.87;;;15.80;46.50;;;;;;6193534;23;20514;-78
2022/03/25 08:36:29;;;;;;;33.00;28.63;;;16.40;45.30;;;;;;6193048;23;20400;-79
2022/03/25 08:38:57;;;;;;;34.17;27.70;;;17.10;44.10;;;;;;6188481;23;20414;-79
2022/03/25 08:41:24;;;;;;;34.00;28.17;;;18.30;43.40;;;;;;6189555;23;20412;-78
2022/03/25 08:43:52;;;;;;;32.50;29.00;;;18.30;41.30;;;;;;6197086;23;20429;-78
2022/03/25 08:46:20;;;;;;;36.73;29.63;;;19.00;40.40;;;;;;6201914;23;20986;-77
2022/03/25 08:48:47;;;;;;;36.57;30.30;;;18.60;40.20;;;;;;6193107;23;20465;-78
2022/03/25 08:51:14;;;;;;;37.13;28.93;;;18.40;41.30;;;;;;6197918;23;20414;-78
2022/03/25 08:53:41;;;;;;;33.10;29.63;;;18.40;40.50;;;;;;6188581;23;20512;-78
2022/03/25 08:56:10;;;;;;;33.27;29.40;;;18.30;41.00;;;;;;6186770;23;20935;-78
2022/03/25 08:58:37;;;;;;;38.03;29.83;;;17.60;40.70;;;;;;6189264;23;20437;-78
2022/03/25 09:01:03;;;;;;;37.93;31.37;;;17.40;41.70;;;;;;6188242;23;20394;-77
2022/03/25 09:03:30;;;;;;;36.00;32.07;;;18.30;41.40;;;;;;6188574;23;20429;-78
2022/03/25 09:05:57;;;;;;;36.90;29.40;;;19.80;40.30;;;;;;6188918;23;20444;-78
2022/03/25 09:08:24;;;;;;;36.90;32.60;;;21.00;38.10;;;;;;6191399;23;20426;-81
2022/03/25 09:10:53;;;;;;;34.20;30.47;;;21.70;36.60;;;;;;6204268;23;20468;-83
2022/03/25 09:13:21;;;;;;;34.33;30.50;;;22.60;35.20;;;;;;6199994;23;20447;-84
2022/03/25 09:15:48;;;;;;;37.10;32.77;;;23.90;33.90;;;;;;6193900;23;20896;-83
2022/03/25 09:18:14;;;;;;;35.10;31.37;;;23.40;32.80;;;;;;6192229;23;20417;-84
2022/03/25 09:20:41;;;;;;;36.10;32.40;;;24.60;32.60;;;;;;6193715;23;20407;-83
2022/03/25 09:23:08;;;;;;;37.53;33.77;;;25.50;31.40;;;;;;6194253;23;20431;-84
2022/03/25 09:25:35;;;;;;;37.90;33.83;;;26.50;29.80;;;;;;6191345;23;20432;-84
2022/03/25 09:28:02;;;;;;;37.97;33.90;;;26.00;29.40;;;;;;6189545;23;20402;-83
2022/03/25 09:30:30;;;;;;;37.33;33.47;;;26.80;28.90;;;;;;6184789;23;20441;-83
2022/03/25 09:32:57;;;;;;;37.00;33.10;;;27.00;28.50;;;;;;6185538;23;20811;-84
2022/03/25 09:35:24;;;;;;;38.50;33.70;;;26.70;28.70;;;;;;6186921;23;20413;-84
2022/03/25 09:37:52;;;;;;;36.83;33.23;;;26.80;29.10;;;;;;6187552;23;20459;-83
2022/03/25 09:40:22;;;;;;;38.73;34.77;;;27.50;28.30;;;;;;6187285;23;20736;-83
2022/03/25 09:42:50;;;;;;;38.30;34.60;;;28.20;27.60;;;;;;6187953;23;20437;-83
2022/03/25 09:45:17;;;;;;;37.70;33.83;;;29.60;26.70;;;;;;6191062;23;20424;-83
2022/03/25 09:47:47;;;;;;;40.40;36.50;;;29.40;25.80;;;;;;6211019;23;20378;-84
2022/03/25 09:50:16;;;;;;;37.00;33.10;;;29.70;25.80;;;;;;6198022;23;21264;-84
2022/03/25 09:52:43;;;;;;;38.80;34.93;;;29.00;25.80;;;;;;6187565;23;20439;-84
2022/03/25 09:55:11;;;;;;;38.50;34.77;;;29.10;25.40;;;;;;6186443;23;20440;-83
2022/03/25 09:57:38;;;;;;;38.37;34.47;;;29.40;25.30;;;;;;6184416;23;20516;-84
2022/03/25 10:00:06;;;;;;;37.70;34.17;;;30.40;24.80;;;;;;6184762;23;20983;-83
2022/03/25 10:02:34;;;;;;;39.50;35.77;;;31.50;23.90;;;;;;6205296;23;20394;-83
2022/03/25 10:05:14;;;;;;;37.47;33.77;;;30.90;23.30;;;;;;6204025;23;20398;-83
2022/03/25 10:07:45;;;;;;;38.30;34.50;;;30.50;23.40;;;;;;6204954;23;20393;-83
2022/03/25 10:10:14;;;;;;;40.03;35.83;;;30.70;23.60;;;;;;6212773;23;20443;-83
2022/03/25 10:12:42;;;;;;;38.07;34.53;;;31.20;23.40;;;;;;6188528;23;20406;-84
2022/03/25 10:15:15;;;;;;;39.13;35.47;;;30.10;24.20;;;;;;6188035;23;20500;-84
2022/03/25 10:17:49;;;;;;;37.50;33.80;;;29.70;24.20;;;;;;6189458;23;20422;-84
2022/03/25 10:20:18;;;;;;;37.27;33.57;;;29.30;25.40;;;;;;6187552;23;20384;-85
2022/03/25 10:22:58;;;;;;;39.67;35.47;;;29.40;25.10;;;;;;6186587;23;20666;-84
2022/03/25 10:25:33;;;;;;;39.37;35.60;;;31.10;24.20;;;;;;6188995;23;20389;-84
2022/03/25 10:28:00;;;;;;;35.83;32.53;;;32.00;23.40;;;;;;6195724;23;20400;-85
2022/03/25 10:30:40;;;;;;;39.83;36.00;;;33.10;22.80;;;;;;6197259;23;20445;-85
2022/03/25 10:33:11;;;;;;;39.33;35.60;;;32.20;22.60;;;;;;6194890;23;20963;-86
2022/03/25 10:36:00;;;;;;;39.90;36.10;;;32.80;23.10;;;;;;6192982;23;20410;-84
2022/03/25 10:38:28;;;;;;;38.00;34.40;;;32.60;23.00;;;;;;6197045;23;20401;-86
2022/03/25 10:40:57;;;;;;;41.00;36.77;;;32.30;22.70;;;;;;6198657;23;20412;-84
2022/03/25 10:43:24;;;;;;;37.27;33.83;;;31.80;22.90;;;;;;6192685;23;20456;-85
2022/03/25 10:45:52;;;;;;;39.00;35.60;;;32.60;22.20;;;;;;6191560;23;20420;-86
2022/03/25 10:48:20;;;;;;;38.40;34.63;;;33.10;21.60;;;;;;6195668;23;20402;-86
2022/03/25 10:51:03;;;;;;;37.23;34.10;;;33.30;21.50;;;;;;6201460;23;20457;-85
2022/03/25 10:53:32;;;;;;;38.93;35.57;;;34.20;21.10;;;;;;6193864;23;20425;-87
2022/03/25 10:56:00;;;;;;;36.83;33.33;;;34.00;20.70;;;;;;6192517;23;20414;-84
2022/03/25 10:58:27;;;;;;;35.47;32.23;;;33.90;20.50;;;;;;6188544;23;20410;-85
2022/03/25 11:00:54;;;;;;;37.93;34.47;;;33.50;20.20;;;;;;6198715;23;20385;-81
2022/03/25 11:03:21;;;;;;;37.07;33.73;;;33.70;20.60;;;;;;6212065;23;20449;-84
2022/03/25 11:05:48;;;;;;;37.43;34.10;;;34.40;20.40;;;;;;6211092;23;20382;-84
2022/03/25 11:08:17;;;;;;;36.70;33.50;;;35.00;19.90;;;;;;6210099;23;20394;-84
2022/03/25 11:10:44;;;;;;;34.70;31.33;;;35.10;19.60;;;;;;6191430;23;20418;-84
2022/03/25 11:13:11;;;;;;;37.37;33.87;;;35.50;19.60;;;;;;6188857;23;20452;-84
2022/03/25 11:15:39;;;;;;;35.60;32.07;;;36.30;19.30;;;;;;6188871;23;20386;-84
2022/03/25 11:18:06;;;;;;;34.60;31.60;;;36.90;19.20;;;;;;6189347;23;20409;-84
2022/03/25 11:20:33;;;;;;;35.13;31.83;;;35.80;18.80;;;;;;6191358;23;20410;-84
2022/03/25 11:23:12;;;;;;;36.70;33.17;;;36.00;18.90;;;;;;6184432;23;20434;-84
2022/03/25 11:25:46;;;;;;;36.10;33.10;;;36.50;18.50;;;;;;6185863;23;20857;-84
2022/03/25 11:28:17;;;;;;;34.37;31.30;;;35.10;18.60;;;;;;6185215;23;20389;-84
2022/03/25 11:30:44;;;;;;;37.67;34.27;;;35.50;19.40;;;;;;6184609;23;20756;-85
2022/03/25 11:33:11;;;;;;;38.07;34.80;;;35.70;18.80;;;;;;6184692;23;20504;-84
2022/03/25 11:35:40;;;;;;;33.47;30.67;;;36.10;18.60;;;;;;6192508;23;20390;-86
2022/03/25 11:38:19;;;;;;;33.27;30.40;;;36.50;18.20;;;;;;6185111;23;20449;-84
2022/03/25 11:40:49;;;;;;;35.27;32.17;;;36.30;18.30;;;;;;6186069;23;20749;-85
2022/03/25 11:43:17;;;;;;;37.53;34.13;;;36.30;18.50;;;;;;6189690;23;20472;-83
2022/03/25 11:45:45;;;;;;;33.80;30.80;;;34.50;18.90;;;;;;6209043;23;20382;-83
2022/03/25 11:48:35;;;;;;;34.10;31.00;;;34.00;19.40;;;;;;6208437;23;20469;-84
2022/03/25 11:51:03;;;;;;;35.83;32.87;;;34.40;19.50;;;;;;6209469;23;20429;-84
2022/03/25 11:53:31;;;;;;;35.57;32.47;;;36.10;18.90;;;;;;6204296;23;20432;-85
2022/03/25 11:56:02;;;;;;;32.57;29.97;;;36.40;18.30;;;;;;6185540;23;20394;-85
2022/03/25 11:58:31;;;;;;;34.90;32.10;;;36.60;18.10;;;;;;6198434;23;20787;-83
2022/03/25 12:01:03;;;;;;;32.77;29.77;;;36.30;18.00;;;;;;6211639;23;20406;-84
2022/03/25 12:03:47;;;;;;;32.67;29.70;;;36.90;18.10;;;;;;6190831;23;20434;-85
2022/03/25 12:06:14;;;;;;;31.93;29.33;;;37.10;17.80;;;;;;6184811;23;20465;-84
2022/03/25 12:08:55;;;;;;;29.50;26.70;;;36.20;17.50;;;;;;6201200;23;20410;-84
2022/03/25 12:11:49;;;;;;;33.37;30.37;;;35.80;17.70;;;;;;6208601;23;20509;-85
2022/03/25 12:14:16;;;;;;;31.80;29.00;;;36.70;18.00;;;;;;6188568;23;20426;-85
2022/03/25 12:17:01;;;;;;;34.27;31.33;;;36.80;18.00;;;;;;6186172;23;20869;-84
2022/03/25 12:19:56;;;;;;;33.47;30.70;;;35.80;18.20;;;;;;6202104;23;20390;-84
2022/03/25 12:22:32;;;;;;;34.33;31.23;;;35.70;18.40;;;;;;6198058;23;20465;-85
2022/03/25 12:25:06;;;;;;;36.00;32.70;;;36.10;18.80;;;;;;6185935;23;20742;-84
2022/03/25 12:27:34;;;;;;;34.37;31.40;;;35.50;18.60;;;;;;6185905;23;20381;-84
2022/03/25 12:30:01;;;;;;;32.90;30.10;;;34.70;19.30;;;;;;6186137;23;20991;-84
2022/03/25 12:32:35;;;;;;;33.57;30.67;;;35.90;19.20;;;;;;6185418;23;20464;-84
2022/03/25 12:35:05;;;;;;;35.03;32.13;;;36.50;18.70;;;;;;6184692;23;20702;-84
2022/03/25 12:37:37;;;;;;;34.70;31.67;;;36.20;18.60;;;;;;6187850;23;20466;-85
2022/03/25 12:40:14;;;;;;;34.23;31.33;;;36.70;18.90;;;;;;6185831;23;20381;-84
2022/03/25 12:42:42;;;;;;;35.17;32.07;;;36.60;18.40;;;;;;6185091;23;20402;-84